aviador You're here:

EPKT Decoded Metar

KATOWICE in POLAND
Report Time2018-01-16 21:00:00
UTC Time2018-01-16 21:16:36
Flight Rules ifr IFR
Wind220° at 19 kt
W.Decomp.*RWY 27: 11.2 kt HW 15.4 kt LCW
W.Rank220° ranks 1
Current wind is above 220° avg. (8.5)
Visibility6000 m
Phenomena:Light Snow
Clouds:Few 003 Hf
Broken 009 Hf
Expected CloudBase > 400 ft AGL from Temp-Dew spread
Ceiling900 ft
Temp01°C (ISA -12)
Dew Point00°C (93% RH)
AAT-7.8°C
QNH0991 hPa
Density Alt299 ft
Elevation932 ft
Report Wrong Elevation
Raw Report
EPKT 162100Z 22019KT 6000 -SN FEW003 BKN009 01/M00 Q0991=

Extra information for EPKT:More info

Metar Taf Metar & Taf Last 4 Metars F.Rules Stats Wind Profile Meteogram Temp Stats Airport Information Weather charts Add Link Nearby VenuesMetar ALERT Operation Metar Decoded Social comments